Time;durP1;ratioP1;P1;durP2;ratioP2;P2;SDS_P1;SDS_P2;PMS_P1;PMS_P2;Temp;Humidity;BMP_temperature;BMP_pressure;BME280_temperature;BME280_humidity;BME280_pressure;Samples;Min_cycle;Max_cycle;Signal;HPM_P1;HPM_P2
2022/01/16 00:01:32;;;;;;;42.58;22.15;;;;;;;1.95;100.00;102109.47;5012452;28;20041;-76
2022/01/16 00:04:09;;;;;;;34.50;20.70;;;;;;;1.91;100.00;102107.91;5004276;28;20033;-77
2022/01/16 00:06:42;;;;;;;36.30;21.65;;;;;;;1.83;100.00;102109.94;4993328;28;20037;-77
2022/01/16 00:09:08;;;;;;;35.17;20.80;;;;;;;1.74;100.00;102094.75;5014011;28;20033;-77
2022/01/16 00:11:35;;;;;;;40.63;22.77;;;;;;;1.69;100.00;102084.56;5023070;28;20036;-78
2022/01/16 00:14:02;;;;;;;41.85;22.85;;;;;;;1.70;100.00;102088.84;5048752;28;20107;-79
2022/01/16 00:16:28;;;;;;;43.88;23.40;;;;;;;1.62;100.00;102084.84;5003135;28;20034;-76
2022/01/16 00:18:54;;;;;;;37.30;21.27;;;;;;;1.67;100.00;102072.59;5041826;28;20037;-76
2022/01/16 00:21:24;;;;;;;37.78;23.08;;;;;;;1.61;100.00;102057.31;5027877;28;20045;-75
2022/01/16 00:23:52;;;;;;;38.22;21.95;;;;;;;1.62;100.00;102069.31;5026403;28;20082;-75
2022/01/16 00:26:19;;;;;;;47.70;23.00;;;;;;;1.65;100.00;102066.63;5026542;28;20488;-75
2022/01/16 00:28:45;;;;;;;39.90;22.92;;;;;;;1.72;100.00;102076.69;5003043;28;20032;-76
2022/01/16 00:31:11;;;;;;;38.47;22.67;;;;;;;1.58;100.00;102084.09;5010813;28;20040;-76
2022/01/16 00:33:39;;;;;;;42.92;22.92;;;;;;;1.68;100.00;102085.47;5038351;28;20052;-76
2022/01/16 00:36:06;;;;;;;42.88;23.75;;;;;;;1.60;100.00;102097.00;5012073;28;20068;-75
2022/01/16 00:38:33;;;;;;;44.75;24.42;;;;;;;1.50;100.00;102086.13;5021141;28;20133;-75
2022/01/16 00:40:58;;;;;;;42.80;24.45;;;;;;;1.43;100.00;102064.84;5039266;28;20033;-76
2022/01/16 00:43:24;;;;;;;40.05;23.10;;;;;;;1.40;100.00;102080.47;5018590;28;20034;-75
2022/01/16 00:45:49;;;;;;;45.58;24.45;;;;;;;1.37;100.00;102075.38;4997866;28;20037;-76
2022/01/16 00:48:15;;;;;;;42.05;22.27;;;;;;;1.31;100.00;102063.53;5019317;28;20043;-76
2022/01/16 00:50:40;;;;;;;37.47;21.98;;;;;;;1.28;100.00;102047.28;5035397;28;20030;-76
2022/01/16 00:53:06;;;;;;;38.25;21.30;;;;;;;1.28;100.00;102029.19;5021068;28;20053;-77
2022/01/16 00:55:32;;;;;;;41.60;22.65;;;;;;;1.25;100.00;102021.56;5026959;28;20061;-77
2022/01/16 00:57:58;;;;;;;38.22;22.60;;;;;;;1.21;100.00;102025.97;5003297;28;20037;-75
2022/01/16 01:00:24;;;;;;;40.13;22.52;;;;;;;1.16;100.00;102028.72;5020123;28;20056;-75
2022/01/16 01:02:54;;;;;;;40.65;21.35;;;;;;;1.16;100.00;102010.63;5002510;28;20049;-76
2022/01/16 01:05:21;;;;;;;42.65;21.83;;;;;;;1.12;100.00;102014.22;5029077;28;20044;-77
2022/01/16 01:07:47;;;;;;;40.13;22.60;;;;;;;1.10;100.00;102010.00;5023792;28;20464;-76
2022/01/16 01:10:12;;;;;;;39.83;21.75;;;;;;;1.10;100.00;102025.53;5021699;28;20120;-75
2022/01/16 01:12:52;;;;;;;39.13;21.15;;;;;;;1.13;100.00;102022.81;5026484;28;20037;-76
2022/01/16 01:15:26;;;;;;;40.38;21.25;;;;;;;1.10;100.00;102034.09;5011613;28;20045;-76
2022/01/16 01:17:52;;;;;;;38.88;21.50;;;;;;;1.08;100.00;102004.91;5030015;28;20536;-77
2022/01/16 01:20:20;;;;;;;41.58;22.20;;;;;;;1.00;100.00;102003.47;5026790;28;20492;-78
2022/01/16 01:22:48;;;;;;;39.20;21.02;;;;;;;0.96;100.00;102001.00;5047434;28;20041;-75
2022/01/16 01:25:14;;;;;;;39.95;21.95;;;;;;;0.92;100.00;102011.50;5028033;28;20044;-76
2022/01/16 01:27:44;;;;;;;50.13;24.23;;;;;;;0.96;100.00;102005.31;5036590;28;20037;-76
2022/01/16 01:30:20;;;;;;;51.28;25.92;;;;;;;1.05;100.00;102004.16;5044054;28;20033;-76
2022/01/16 01:32:47;;;;;;;53.53;27.10;;;;;;;1.07;100.00;102012.69;5045025;28;20050;-75
2022/01/16 01:35:15;;;;;;;45.22;24.88;;;;;;;1.19;100.00;102022.63;5042546;28;20052;-78
2022/01/16 01:37:42;;;;;;;42.65;23.83;;;;;;;1.25;100.00;102016.38;5043864;28;20483;-77
2022/01/16 01:40:11;;;;;;;38.85;21.88;;;;;;;1.37;100.00;102026.25;5038420;28;20487;-75
2022/01/16 01:51:06;;;;;;;45.80;25.13;;;;;;;1.51;100.00;101948.19;5036802;28;20035;-75
2022/01/16 01:53:32;;;;;;;47.17;25.27;;;;;;;1.38;100.00;101926.28;5023985;28;20140;-75
2022/01/16 01:55:58;;;;;;;47.90;27.45;;;;;;;1.38;100.00;101916.78;5024188;28;20443;-76
2022/01/16 01:58:24;;;;;;;51.90;29.13;;;;;;;1.34;100.00;101915.22;5027562;28;20041;-76
2022/01/16 02:00:50;;;;;;;54.78;28.83;;;;;;;1.34;100.00;101907.47;5029763;28;20682;-77
2022/01/16 02:03:23;;;;;;;55.47;29.13;;;;;;;1.35;100.00;101915.16;5021265;28;20033;-74
2022/01/16 02:05:49;;;;;;;57.45;29.00;;;;;;;1.34;100.00;101941.91;5014653;28;20098;-77
2022/01/16 02:08:15;;;;;;;56.65;29.80;;;;;;;1.43;100.00;101953.66;5025077;28;20024;-74
2022/01/16 02:10:42;;;;;;;55.42;29.00;;;;;;;1.38;100.00;101958.16;5007184;28;20041;-75
2022/01/16 02:13:09;;;;;;;52.90;29.20;;;;;;;1.38;100.00;101959.91;5042672;28;20035;-77
2022/01/16 02:32:13;;;;;;;66.47;30.52;;;;;;;1.33;100.00;101965.22;5028407;28;20037;-76
2022/01/16 02:34:46;;;;;;;60.47;29.85;;;;;;;1.28;100.00;101960.25;5055111;28;20045;-75
2022/01/16 02:37:15;;;;;;;63.60;32.35;;;;;;;1.37;100.00;101971.97;5025315;28;20040;-77
2022/01/16 02:39:47;;;;;;;65.22;31.88;;;;;;;1.38;100.00;101970.25;5026458;28;20029;-77
2022/01/16 02:42:14;;;;;;;62.40;31.50;;;;;;;1.41;100.00;101972.69;5026119;28;20091;-75
2022/01/16 02:45:00;;;;;;;70.78;32.55;;;;;;;1.49;100.00;101963.78;5042038;28;20428;-75
2022/01/16 02:47:26;;;;;;;66.03;31.58;;;;;;;1.42;100.00;101957.13;5010670;28;20517;-76
2022/01/16 02:49:53;;;;;;;69.25;32.40;;;;;;;1.43;100.00;101953.66;5026749;28;20029;-77
2022/01/16 02:52:21;;;;;;;70.03;32.60;;;;;;;1.49;100.00;101956.00;5007179;28;20037;-76
2022/01/16 02:54:49;;;;;;;68.97;33.17;;;;;;;1.52;100.00;101949.88;5040158;28;20064;-76
2022/01/16 02:57:18;;;;;;;73.13;35.17;;;;;;;1.50;100.00;101949.09;5024335;28;20071;-76
2022/01/16 02:59:53;;;;;;;72.43;36.08;;;;;;;1.46;100.00;101935.44;5021832;28;20095;-75
2022/01/16 03:02:21;;;;;;;66.88;34.85;;;;;;;1.47;100.00;101931.09;5006723;28;20049;-75
2022/01/16 03:04:47;;;;;;;71.25;36.47;;;;;;;1.43;100.00;101927.81;5035360;28;20044;-75
2022/01/16 03:07:13;;;;;;;78.82;37.63;;;;;;;1.52;100.00;101936.94;5036758;28;20037;-77
2022/01/16 03:12:07;;;;;;;72.82;37.20;;;;;;;1.52;100.00;101932.59;5016744;28;20041;-76
2022/01/16 03:14:33;;;;;;;71.35;34.72;;;;;;;1.43;100.00;101921.78;5019038;28;20435;-75
2022/01/16 03:16:59;;;;;;;74.05;36.72;;;;;;;1.50;100.00;101921.47;5005786;28;20092;-75
2022/01/16 03:22:29;;;;;;;70.93;34.72;;;;;;;1.58;100.00;101900.50;4960787;28;20078;-76
2022/01/16 03:24:54;;;;;;;70.35;34.25;;;;;;;1.57;100.00;101891.06;4968620;28;20087;-77
2022/01/16 03:27:20;;;;;;;70.15;35.40;;;;;;;1.51;100.00;101889.56;4981962;28;20139;-77
2022/01/16 03:29:49;;;;;;;70.97;35.72;;;;;;;1.62;100.00;101899.50;5027419;28;20033;-75
2022/01/16 03:32:18;;;;;;;68.60;34.22;;;;;;;1.58;100.00;101900.50;5024048;28;20064;-76
2022/01/16 03:34:45;;;;;;;65.88;33.75;;;;;;;1.65;100.00;101889.00;5028294;28;20514;-74
2022/01/16 03:37:10;;;;;;;72.47;35.35;;;;;;;1.55;100.00;101887.69;5009530;28;20770;-75
2022/01/16 03:39:37;;;;;;;72.40;35.75;;;;;;;1.67;100.00;101902.72;5012698;28;20078;-75
2022/01/16 03:42:03;;;;;;;67.32;34.85;;;;;;;1.60;100.00;101885.78;5008411;28;20132;-75
2022/01/16 03:44:29;;;;;;;75.38;34.78;;;;;;;1.61;100.00;101879.69;5005313;28;20080;-76
2022/01/16 03:46:55;;;;;;;73.88;35.83;;;;;;;1.59;100.00;101872.91;5025695;28;20116;-77
2022/01/16 03:49:25;;;;;;;72.75;34.35;;;;;;;1.67;100.00;101870.84;5037151;28;20037;-76
2022/01/16 03:51:52;;;;;;;72.28;35.35;;;;;;;1.75;100.00;101882.56;5029249;28;20043;-76
2022/01/16 03:54:20;;;;;;;69.80;34.78;;;;;;;1.73;100.00;101879.22;5042647;28;20484;-75
2022/01/16 03:56:46;;;;;;;69.22;34.20;;;;;;;1.74;100.00;101860.19;5028125;28;20039;-77
2022/01/16 03:59:12;;;;;;;66.15;32.28;;;;;;;1.82;100.00;101862.47;5026040;28;20061;-74
2022/01/16 04:01:39;;;;;;;69.38;33.58;;;;;;;1.80;100.00;101861.69;5002627;28;20033;-77
2022/01/16 04:04:05;;;;;;;66.90;32.97;;;;;;;1.78;100.00;101853.16;4995341;28;20037;-76
2022/01/16 04:06:31;;;;;;;70.65;33.30;;;;;;;1.85;100.00;101861.50;5036111;28;20501;-75
2022/01/16 04:08:57;;;;;;;65.78;32.60;;;;;;;1.86;100.00;101860.59;5022030;28;20053;-75
2022/01/16 04:11:26;;;;;;;67.07;30.77;;;;;;;1.90;100.00;101857.84;5028174;28;20594;-75
2022/01/16 04:13:55;;;;;;;70.40;31.33;;;;;;;1.89;100.00;101855.31;5024862;28;20406;-75
2022/01/16 04:16:23;;;;;;;63.78;30.30;;;;;;;1.82;100.00;101862.47;5035962;28;20037;-76
2022/01/16 04:18:51;;;;;;;64.90;30.25;;;;;;;1.79;100.00;101852.25;5014627;28;20068;-76
2022/01/16 04:21:22;;;;;;;73.20;33.10;;;;;;;1.88;100.00;101848.44;5028650;28;20064;-77
2022/01/16 04:23:48;;;;;;;71.95;32.17;;;;;;;1.87;100.00;101849.34;5009901;28;20044;-76
2022/01/16 04:26:15;;;;;;;68.43;30.80;;;;;;;1.90;100.00;101838.84;5023459;28;20063;-76
2022/01/16 04:28:41;;;;;;;68.07;31.88;;;;;;;1.87;100.00;101844.19;5031885;28;20029;-76
2022/01/16 04:31:08;;;;;;;69.70;31.35;;;;;;;1.89;100.00;101840.63;5032370;28;20117;-74
2022/01/16 04:33:33;;;;;;;68.00;31.83;;;;;;;1.80;100.00;101835.81;5015878;28;20033;-74
2022/01/16 04:35:59;;;;;;;71.78;32.75;;;;;;;1.73;100.00;101819.72;5046227;28;20504;-75
2022/01/16 04:38:25;;;;;;;64.40;30.30;;;;;;;1.79;100.00;101834.16;5047851;28;20036;-77
2022/01/16 04:43:47;;;;;;;65.70;30.63;;;;;;;1.86;100.00;101847.66;5031207;28;20057;-76
2022/01/16 04:43:49;;;;;;;63.42;29.17;;;;;;;1.86;100.00;101845.06;5034114;28;20029;-75
2022/01/16 04:46:20;;;;;;;65.40;30.90;;;;;;;1.86;100.00;101842.47;5008577;28;20032;-76
2022/01/16 04:48:47;;;;;;;66.43;30.90;;;;;;;1.95;100.00;101848.09;5025510;28;20392;-75
2022/01/16 04:51:13;;;;;;;63.35;31.30;;;;;;;1.85;100.00;101853.75;5021307;28;20029;-76
2022/01/16 04:53:39;;;;;;;64.32;30.05;;;;;;;1.83;100.00;101855.53;5021436;28;20041;-74
2022/01/16 04:56:06;;;;;;;66.65;30.52;;;;;;;1.83;100.00;101861.56;5035478;28;20484;-76
2022/01/16 04:58:32;;;;;;;66.13;30.73;;;;;;;1.95;100.00;101855.88;5032618;28;20021;-76
2022/01/16 05:00:59;;;;;;;66.05;30.88;;;;;;;1.90;100.00;101857.84;5027316;28;20060;-76
2022/01/16 05:03:26;;;;;;;68.10;31.15;;;;;;;1.89;100.00;101874.25;5023810;28;20076;-76
2022/01/16 05:05:52;;;;;;;61.15;30.55;;;;;;;1.91;100.00;101854.31;5032169;28;20037;-75
2022/01/16 05:08:18;;;;;;;67.38;31.35;;;;;;;1.79;100.00;101866.91;5002064;28;20036;-73
2022/01/16 05:10:43;;;;;;;71.18;32.72;;;;;;;1.93;100.00;101862.03;5030235;28;20031;-75
2022/01/16 05:18:47;;;;;;;63.65;29.75;;;;;;;1.86;100.00;101845.06;5042698;28;20067;-75
2022/01/16 05:21:17;;;;;;;60.70;29.35;;;;;;;1.81;100.00;101839.22;5024545;28;20091;-75
2022/01/16 05:23:43;;;;;;;69.93;31.52;;;;;;;1.86;100.00;101845.06;5024720;28;20044;-75
2022/01/16 05:26:10;;;;;;;63.88;29.77;;;;;;;1.84;100.00;101842.53;4997654;28;20045;-75
2022/01/16 05:28:39;;;;;;;66.75;30.00;;;;;;;1.67;100.00;101840.63;5009459;28;20091;-75
2022/01/16 05:31:06;;;;;;;61.22;29.05;;;;;;;1.84;100.00;101837.38;5024720;28;20467;-76
2022/01/16 05:33:32;;;;;;;64.57;30.27;;;;;;;1.89;100.00;101840.63;5016401;28;20033;-75
2022/01/16 05:35:58;;;;;;;62.33;28.95;;;;;;;1.90;100.00;101836.28;5017396;28;20461;-75
2022/01/16 05:38:24;;;;;;;61.42;28.42;;;;;;;1.93;100.00;101830.97;5023141;28;20104;-74
2022/01/16 05:40:50;;;;;;;60.25;28.25;;;;;;;1.98;100.00;101830.78;5044032;28;20551;-74
2022/01/16 05:43:16;;;;;;;62.35;27.77;;;;;;;1.94;100.00;101827.47;5024323;28;20025;-74
2022/01/16 05:45:41;;;;;;;64.68;29.77;;;;;;;1.91;100.00;101828.44;5027630;28;20041;-75
2022/01/16 05:48:07;;;;;;;60.63;29.17;;;;;;;1.86;100.00;101832.97;5030500;28;20043;-75
2022/01/16 05:50:33;;;;;;;58.05;28.25;;;;;;;1.88;100.00;101836.31;5045836;28;20029;-75
2022/01/16 05:53:00;;;;;;;64.85;28.08;;;;;;;1.91;100.00;101827.63;5041091;28;20110;-76
2022/01/16 05:55:36;;;;;;;55.67;27.80;;;;;;;1.72;100.00;101825.78;5027129;28;20056;-76
2022/01/16 05:58:05;;;;;;;59.58;27.92;;;;;;;1.85;100.00;101827.88;5008111;28;20037;-75
2022/01/16 06:00:31;;;;;;;58.33;28.10;;;;;;;1.78;100.00;101827.28;5013096;28;20029;-75
2022/01/16 06:02:57;;;;;;;62.65;29.00;;;;;;;1.80;100.00;101825.47;5013513;28;20063;-75
2022/01/16 06:05:27;;;;;;;65.03;28.60;;;;;;;1.84;100.00;101829.59;5037080;28;20057;-75
2022/01/16 06:07:57;;;;;;;67.07;29.67;;;;;;;1.80;100.00;101829.81;5027614;28;20427;-76
2022/01/16 06:10:23;;;;;;;66.82;29.00;;;;;;;1.78;100.00;101829.88;5039854;28;20036;-76
2022/01/16 06:12:51;;;;;;;74.22;32.03;;;;;;;1.77;100.00;101812.66;5029293;28;20044;-75
2022/01/16 06:15:18;;;;;;;70.10;31.77;;;;;;;1.94;100.00;101817.13;5021279;28;20065;-76
2022/01/16 06:17:43;;;;;;;66.88;29.38;;;;;;;1.88;100.00;101815.63;5023522;28;20033;-75
2022/01/16 06:20:09;;;;;;;72.82;31.02;;;;;;;1.87;100.00;101808.78;5046382;28;20094;-74
2022/01/16 06:22:35;;;;;;;69.55;30.73;;;;;;;1.84;100.00;101805.47;5044529;28;20033;-76
2022/01/16 06:25:01;;;;;;;66.78;30.90;;;;;;;1.92;100.00;101803.41;5028063;28;20476;-76
2022/01/16 06:27:26;;;;;;;69.63;30.73;;;;;;;1.93;100.00;101787.00;5024296;28;20033;-74
2022/01/16 06:29:52;;;;;;;69.00;31.00;;;;;;;1.94;100.00;101780.88;5007927;28;20140;-76
2022/01/16 06:32:17;;;;;;;78.68;33.33;;;;;;;1.95;100.00;101775.66;5021850;28;20025;-76
2022/01/16 06:34:43;;;;;;;79.05;33.17;;;;;;;1.99;100.00;101783.31;5030161;28;20123;-76
2022/01/16 06:37:09;;;;;;;80.13;34.25;;;;;;;1.92;100.00;101772.34;5038376;28;20072;-76
2022/01/16 06:39:34;;;;;;;79.53;34.00;;;;;;;2.01;100.00;101773.72;5013901;28;20040;-76
2022/01/16 06:42:00;;;;;;;79.00;34.67;;;;;;;1.99;100.00;101760.84;5051620;28;20493;-75
2022/01/16 06:44:25;;;;;;;76.78;33.03;;;;;;;2.05;100.00;101762.31;5016973;28;20044;-76
2022/01/16 06:46:51;;;;;;;74.97;30.98;;;;;;;2.00;100.00;101764.25;5007150;28;20091;-76
2022/01/16 06:49:17;;;;;;;85.82;34.63;;;;;;;1.98;100.00;101756.59;5026196;28;20131;-77
2022/01/16 06:51:42;;;;;;;79.57;33.53;;;;;;;2.01;100.00;101760.78;5025401;28;20033;-76
2022/01/16 06:54:08;;;;;;;76.82;32.85;;;;;;;1.98;100.00;101768.66;5022321;28;20045;-74
2022/01/16 06:56:34;;;;;;;73.25;32.38;;;;;;;2.00;100.00;101767.72;5029009;28;20029;-76
2022/01/16 06:59:00;;;;;;;73.22;32.72;;;;;;;2.00;100.00;101762.53;5028701;28;20407;-76
2022/01/16 07:01:26;;;;;;;69.35;31.15;;;;;;;1.99;100.00;101757.41;5025002;28;20358;-75
2022/01/16 07:03:54;;;;;;;74.07;31.58;;;;;;;1.97;100.00;101757.47;5020041;28;20056;-73
2022/01/16 07:06:21;;;;;;;69.05;30.40;;;;;;;2.00;100.00;101757.38;5024713;28;20070;-75
2022/01/16 07:08:47;;;;;;;72.25;32.08;;;;;;;1.95;100.00;101752.38;5005388;28;20048;-74
2022/01/16 07:11:13;;;;;;;69.88;30.50;;;;;;;2.00;100.00;101762.53;5036413;28;20025;-76
2022/01/16 07:13:39;;;;;;;67.00;29.77;;;;;;;1.89;100.00;101769.91;5011421;28;20571;-73
2022/01/16 07:16:05;;;;;;;70.28;31.05;;;;;;;2.02;100.00;101765.06;5009982;28;20037;-74
2022/01/16 07:18:30;;;;;;;71.72;31.08;;;;;;;2.01;100.00;101761.63;5043499;28;20028;-76
2022/01/16 07:20:57;;;;;;;64.65;29.08;;;;;;;1.99;100.00;101760.00;5041286;28;20044;-76
2022/01/16 07:23:23;;;;;;;64.55;29.02;;;;;;;1.96;100.00;101750.66;5012646;28;20124;-76
2022/01/16 07:25:49;;;;;;;72.15;31.30;;;;;;;2.04;100.00;101750.31;5024800;28;20064;-75
2022/01/16 07:28:15;;;;;;;72.03;30.13;;;;;;;2.01;100.00;101747.84;5023287;28;20855;-75
2022/01/16 07:30:42;;;;;;;74.47;29.65;;;;;;;2.01;100.00;101753.03;5007456;28;20037;-76
2022/01/16 07:33:08;;;;;;;76.60;31.25;;;;;;;2.00;100.00;101761.69;5034046;28;20507;-77
2022/01/16 07:35:36;;;;;;;74.90;31.58;;;;;;;1.98;100.00;101754.00;5013682;28;20078;-76
2022/01/16 07:38:02;;;;;;;75.22;31.90;;;;;;;2.06;100.00;101759.69;5024567;28;20090;-76
2022/01/16 07:40:28;;;;;;;72.95;31.85;;;;;;;2.03;100.00;101758.97;5023032;28;20113;-75
2022/01/16 07:42:55;;;;;;;87.75;34.10;;;;;;;1.98;100.00;101760.91;5009131;28;20033;-76
2022/01/16 07:45:21;;;;;;;84.75;34.75;;;;;;;1.99;100.00;101757.41;5019365;28;20047;-75
2022/01/16 07:47:47;;;;;;;87.00;34.75;;;;;;;2.05;100.00;101755.41;5011756;28;20068;-76
2022/01/16 07:50:14;;;;;;;94.93;36.65;;;;;;;2.04;100.00;101761.50;5035114;28;20137;-75
2022/01/16 07:52:40;;;;;;;90.43;37.10;;;;;;;2.05;100.00;101763.16;5022855;28;20103;-75
2022/01/16 07:55:06;;;;;;;101.30;39.05;;;;;;;2.06;100.00;101759.69;5030269;28;20480;-75
2022/01/16 07:57:32;;;;;;;99.70;39.50;;;;;;;2.06;100.00;101761.44;5048891;28;20086;-76
2022/01/16 07:59:58;;;;;;;108.05;41.05;;;;;;;1.97;100.00;101760.06;5032144;28;20030;-75
2022/01/16 08:02:24;;;;;;;97.38;39.33;;;;;;;1.99;100.00;101755.66;5028623;28;20387;-75
2022/01/16 08:04:49;;;;;;;101.25;39.20;;;;;;;2.03;100.00;101761.56;5038137;28;20089;-76
2022/01/16 08:07:17;;;;;;;96.65;40.58;;;;;;;2.06;100.00;101776.97;5040164;28;20033;-76
2022/01/16 08:09:43;;;;;;;104.65;40.22;;;;;;;2.00;100.00;101788.41;5049042;28;20120;-75
2022/01/16 08:12:11;;;;;;;102.15;40.30;;;;;;;2.05;100.00;101776.09;5009651;28;20048;-73
2022/01/16 08:14:37;;;;;;;104.90;41.83;;;;;;;2.04;100.00;101779.59;5030278;28;20032;-77
2022/01/16 08:17:03;;;;;;;107.95;41.53;;;;;;;2.03;100.00;101787.44;5008189;28;20416;-77
2022/01/16 08:19:29;;;;;;;104.78;39.92;;;;;;;2.03;100.00;101808.13;5031573;28;20039;-75
2022/01/16 08:21:55;;;;;;;103.80;40.97;;;;;;;2.08;100.00;101808.78;5029070;28;20068;-74
2022/01/16 08:24:22;;;;;;;102.47;39.50;;;;;;;2.04;100.00;101800.31;5021128;28;20033;-75
2022/01/16 08:26:48;;;;;;;113.63;40.55;;;;;;;2.04;100.00;101804.66;5045142;28;20041;-74
2022/01/16 08:29:14;;;;;;;100.45;38.60;;;;;;;2.07;100.00;101801.91;5040839;28;20037;-75
2022/01/16 08:31:40;;;;;;;106.10;39.72;;;;;;;2.13;100.00;101804.28;5024336;28;20439;-75
2022/01/16 08:34:06;;;;;;;103.80;38.85;;;;;;;2.09;100.00;101803.56;5019785;28;20041;-75
2022/01/16 08:36:32;;;;;;;100.10;39.35;;;;;;;2.06;100.00;101787.31;5014845;28;20507;-73
2022/01/16 08:38:58;;;;;;;108.45;40.13;;;;;;;2.03;100.00;101787.44;5026205;28;20041;-75
2022/01/16 08:41:29;;;;;;;101.15;38.95;;;;;;;2.02;100.00;101799.53;5012358;28;20024;-75
2022/01/16 08:43:54;;;;;;;105.45;39.53;;;;;;;2.10;100.00;101800.03;5048773;28;20085;-76
2022/01/16 08:46:21;;;;;;;113.07;40.55;;;;;;;2.05;100.00;101791.63;5031198;28;20104;-76
2022/01/16 08:48:48;;;;;;;97.65;38.42;;;;;;;2.04;100.00;101802.06;5040594;28;20124;-76
2022/01/16 08:51:14;;;;;;;113.50;40.60;;;;;;;2.05;100.00;101788.22;5032206;28;20088;-76
2022/01/16 08:53:40;;;;;;;116.18;42.38;;;;;;;2.04;100.00;101789.13;5032249;28;20400;-74
2022/01/16 08:56:06;;;;;;;118.13;40.63;;;;;;;2.00;100.00;101801.34;5030322;28;20132;-75
2022/01/16 08:58:32;;;;;;;110.32;41.83;;;;;;;2.02;100.00;101801.28;5012284;28;20080;-75
2022/01/16 09:00:58;;;;;;;115.28;39.63;;;;;;;1.91;100.00;101800.00;5031731;28;20033;-74
2022/01/16 09:03:24;;;;;;;118.38;42.92;;;;;;;1.91;100.00;101799.16;5026467;28;20059;-75
2022/01/16 09:05:50;;;;;;;119.97;41.05;;;;;;;1.96;100.00;101799.81;5031320;28;20049;-75
2022/01/16 09:08:19;;;;;;;121.05;41.47;;;;;;;1.85;100.00;101795.06;5015278;28;20032;-74
2022/01/16 09:10:46;;;;;;;125.28;41.75;;;;;;;1.84;100.00;101780.44;5008335;28;20056;-76
2022/01/16 09:13:15;;;;;;;125.75;40.90;;;;;;;1.87;100.00;101795.03;5011438;28;20372;-75
2022/01/16 09:15:47;;;;;;;132.77;42.10;;;;;;;1.85;100.00;101794.25;5041050;28;20083;-75
2022/01/16 09:18:15;;;;;;;125.72;40.25;;;;;;;1.85;100.00;101804.59;5013906;28;20121;-76
2022/01/16 09:20:41;;;;;;;124.55;41.00;;;;;;;1.82;100.00;101795.19;5035063;28;20029;-75
2022/01/16 09:23:08;;;;;;;131.55;43.30;;;;;;;1.84;100.00;101798.56;5024077;28;20037;-75
2022/01/16 09:25:34;;;;;;;125.57;41.72;;;;;;;1.87;100.00;101798.44;5020440;28;20060;-76
2022/01/16 09:28:01;;;;;;;123.53;40.42;;;;;;;1.83;100.00;101794.31;5030340;28;20087;-75
2022/01/16 09:30:29;;;;;;;125.65;40.95;;;;;;;1.91;100.00;101800.00;5039971;28;20045;-74
2022/01/16 09:32:58;;;;;;;135.75;41.95;;;;;;;1.89;100.00;101796.63;5021966;28;20040;-74
2022/01/16 09:35:24;;;;;;;127.00;40.05;;;;;;;1.90;100.00;101800.91;5026329;28;20559;-76
2022/01/16 09:37:51;;;;;;;130.60;41.70;;;;;;;1.92;100.00;101790.47;5048462;28;20044;-76
2022/01/16 09:40:19;;;;;;;124.20;42.30;;;;;;;1.83;100.00;101790.84;5029353;28;20049;-75
2022/01/16 09:42:46;;;;;;;121.55;41.33;;;;;;;1.87;100.00;101788.09;5010102;28;20060;-75
2022/01/16 09:45:16;;;;;;;126.28;41.97;;;;;;;1.90;100.00;101787.97;4999411;28;20072;-76
2022/01/16 09:47:44;;;;;;;114.18;40.00;;;;;;;2.05;100.00;101785.63;5003207;28;20037;-75
2022/01/16 09:50:11;;;;;;;116.00;39.50;;;;;;;2.05;100.00;101785.63;5024884;28;20064;-77
2022/01/16 09:52:42;;;;;;;120.07;40.88;;;;;;;1.97;100.00;101791.13;5027825;28;20399;-76
2022/01/16 09:55:09;;;;;;;119.00;40.90;;;;;;;2.03;100.00;101777.06;5022890;28;20510;-76
2022/01/16 09:57:35;;;;;;;121.13;40.63;;;;;;;2.06;100.00;101780.38;5030168;28;20669;-76
2022/01/16 10:00:07;;;;;;;127.63;42.85;;;;;;;2.11;100.00;101777.56;5029568;28;20094;-74
2022/01/16 10:02:43;;;;;;;125.47;41.60;;;;;;;2.11;100.00;101780.16;5044124;28;20064;-75
2022/01/16 10:05:35;;;;;;;121.18;41.75;;;;;;;2.13;100.00;101786.97;5032849;28;20061;-77
2022/01/16 10:08:11;;;;;;;129.88;41.95;;;;;;;2.18;100.00;101783.34;5048455;28;20100;-76
2022/01/16 10:10:40;;;;;;;132.15;40.95;;;;;;;2.23;100.00;101784.00;5037509;28;20029;-77
2022/01/16 10:13:23;;;;;;;130.05;42.10;;;;;;;2.22;100.00;101782.31;5024345;28;20053;-77
2022/01/16 10:15:59;;;;;;;126.95;42.63;;;;;;;2.19;100.00;101785.03;5005542;28;20258;-77
2022/01/16 10:18:54;;;;;;;123.80;40.08;;;;;;;2.20;100.00;101773.75;5029395;28;20328;-75
2022/01/16 10:21:31;;;;;;;126.43;41.40;;;;;;;2.26;100.00;101776.94;5028862;28;20049;-76
2022/01/16 10:23:57;;;;;;;127.30;39.92;;;;;;;2.28;100.00;101769.94;5028589;28;20037;-75
2022/01/16 10:26:24;;;;;;;130.18;42.50;;;;;;;2.28;100.00;101763.91;5012462;28;20049;-75
2022/01/16 10:28:51;;;;;;;125.15;40.20;;;;;;;2.32;100.00;101770.66;5030068;28;20091;-77
2022/01/16 10:31:23;;;;;;;123.15;41.60;;;;;;;2.37;100.00;101760.06;5027305;28;20141;-76
2022/01/16 10:33:49;;;;;;;116.90;41.30;;;;;;;2.31;100.00;101756.00;5025106;28;20033;-74
2022/01/16 10:36:34;;;;;;;123.55;39.78;;;;;;;2.36;100.00;101754.06;5029384;28;20033;-75
2022/01/16 10:39:08;;;;;;;123.03;39.30;;;;;;;2.39;100.00;101748.72;5042116;28;20037;-75
2022/01/16 10:41:34;;;;;;;105.18;37.85;;;;;;;2.41;100.00;101751.25;5018759;28;20116;-75
2022/01/16 10:44:00;;;;;;;114.78;38.80;;;;;;;2.44;100.00;101749.38;5038642;28;20120;-75
2022/01/16 10:46:29;;;;;;;120.35;39.83;;;;;;;2.36;100.00;101753.22;5026367;28;20454;-75
2022/01/16 10:49:18;;;;;;;108.22;38.17;;;;;;;2.46;100.00;101762.25;5011762;28;20063;-74
2022/01/16 10:52:05;;;;;;;104.32;37.08;;;;;;;2.44;100.00;101771.84;5033801;28;20113;-75
2022/01/16 10:54:50;;;;;;;107.55;37.75;;;;;;;2.50;100.00;101769.81;5009780;28;20075;-74
2022/01/16 10:57:27;;;;;;;107.80;36.85;;;;;;;2.55;100.00;101772.19;5041325;28;20067;-74
2022/01/16 11:00:05;;;;;;;106.43;37.40;;;;;;;2.53;100.00;101768.84;5032367;28;20040;-75
2022/01/16 11:02:30;;;;;;;101.22;35.33;;;;;;;2.54;100.00;101767.91;5040272;28;20033;-76
2022/01/16 11:05:08;;;;;;;107.20;36.63;;;;;;;2.53;100.00;101763.66;5015745;28;20885;-77
2022/01/16 11:07:33;;;;;;;104.93;36.70;;;;;;;2.55;100.00;101763.59;5053637;28;20025;-73
2022/01/16 11:10:00;;;;;;;110.28;36.83;;;;;;;2.56;100.00;101762.66;5013909;28;20052;-76
2022/01/16 11:12:34;;;;;;;89.68;33.60;;;;;;;2.51;100.00;101761.13;5029225;28;20820;-75
2022/01/16 11:15:01;;;;;;;99.55;35.35;;;;;;;2.55;100.00;101753.25;5020926;28;20033;-74
2022/01/16 11:17:27;;;;;;;98.97;34.53;;;;;;;2.59;100.00;101755.59;5023443;28;20048;-75
2022/01/16 11:19:53;;;;;;;87.63;32.78;;;;;;;2.54;100.00;101754.97;5036092;28;20097;-75
2022/01/16 11:22:24;;;;;;;84.85;30.85;;;;;;;2.60;100.00;101756.44;5041624;28;20032;-75
2022/01/16 11:25:09;;;;;;;84.85;30.95;;;;;;;2.59;100.00;101750.41;5033314;28;20041;-75
2022/01/16 11:27:35;;;;;;;95.90;34.05;;;;;;;2.57;100.00;101749.66;5036455;28;20033;-73
2022/01/16 11:30:01;;;;;;;84.10;29.83;;;;;;;2.60;100.00;101746.94;5043412;28;20048;-74
2022/01/16 11:32:29;;;;;;;86.05;30.52;;;;;;;2.57;100.00;101734.13;5042668;28;20056;-75
2022/01/16 11:34:57;;;;;;;82.32;30.15;;;;;;;2.59;100.00;101745.25;5025090;28;20032;-74
2022/01/16 11:37:23;;;;;;;91.63;31.30;;;;;;;2.59;100.00;101737.47;5012894;28;20037;-74
2022/01/16 11:39:48;;;;;;;84.90;29.50;;;;;;;2.60;100.00;101743.47;5044263;28;20048;-74
2022/01/16 11:42:21;;;;;;;77.38;28.95;;;;;;;2.58;100.00;101730.63;5048736;28;20029;-74
2022/01/16 11:44:53;;;;;;;81.28;29.50;;;;;;;2.65;100.00;101738.94;5032996;28;20033;-74
2022/01/16 11:47:19;;;;;;;81.63;29.53;;;;;;;2.64;100.00;101743.28;5016818;28;20037;-75